Time;durP1;ratioP1;P1;durP2;ratioP2;P2;SDS_P1;SDS_P2;PMS_P1;PMS_P2;Temp;Humidity;BMP_temperature;BMP_pressure;BME280_temperature;BME280_humidity;BME280_pressure;Samples;Min_cycle;Max_cycle;Signal;HPM_P1;HPM_P2
2022/03/13 00:01:33;;;;;;;9.30;6.13;;;;;;;;;;8185812;28;20121;-58
2022/03/13 00:05:35;;;;;;;12.65;6.15;;;;;;;;;;8186432;28;20027;-58
2022/03/13 00:09:35;;;;;;;12.18;6.20;;;;;;;;;;8184992;28;20383;-58
2022/03/13 00:13:37;;;;;;;9.77;6.30;;;;;;;;;;8186373;28;20028;-58
2022/03/13 00:17:38;;;;;;;9.40;6.10;;;;;;;;;;8184869;28;21043;-58
2022/03/13 00:21:39;;;;;;;9.00;6.03;;;;;;;;;;8186968;28;20443;-58
2022/03/13 00:25:40;;;;;;;8.02;5.57;;;;;;;;;;8187891;28;20042;-58
2022/03/13 00:29:41;;;;;;;11.20;6.30;;;;;;;;;;8185150;28;20035;-58
2022/03/13 00:33:42;;;;;;;13.77;6.95;;;;;;;;;;8184696;28;20031;-58
2022/03/13 00:37:42;;;;;;;11.50;7.28;;;;;;;;;;8182319;28;20027;-58
2022/03/13 00:41:43;;;;;;;13.45;7.80;;;;;;;;;;8187192;28;20030;-58
2022/03/13 00:45:43;;;;;;;14.35;7.32;;;;;;;;;;8185894;28;20162;-58
2022/03/13 00:49:43;;;;;;;10.75;7.05;;;;;;;;;;8187698;28;20027;-58
2022/03/13 00:53:43;;;;;;;14.05;7.72;;;;;;;;;;8183366;28;20030;-58
2022/03/13 00:57:44;;;;;;;15.43;7.53;;;;;;;;;;8189659;28;20023;-58
2022/03/13 01:01:44;;;;;;;11.93;7.25;;;;;;;;;;8183734;28;20876;-58
2022/03/13 01:05:44;;;;;;;19.40;7.65;;;;;;;;;;8186467;28;20031;-58
2022/03/13 01:09:44;;;;;;;12.05;7.32;;;;;;;;;;8185796;28;20095;-58
2022/03/13 01:13:45;;;;;;;11.68;6.72;;;;;;;;;;8184380;28;20026;-58
2022/03/13 01:17:45;;;;;;;11.85;6.93;;;;;;;;;;8184149;28;20137;-58
2022/03/13 01:21:46;;;;;;;10.88;7.03;;;;;;;;;;8185059;28;20146;-58
2022/03/13 01:26:06;;;;;;;10.75;7.03;;;;;;;;;;8184970;28;20030;-58
2022/03/13 01:30:06;;;;;;;12.05;7.00;;;;;;;;;;8181898;28;20050;-58
2022/03/13 01:34:11;;;;;;;12.05;6.80;;;;;;;;;;8184976;28;20019;-58
2022/03/13 01:38:14;;;;;;;13.27;7.07;;;;;;;;;;8180953;28;20031;-58
2022/03/13 01:42:14;;;;;;;9.57;6.25;;;;;;;;;;8182956;28;20027;-58
2022/03/13 01:46:15;;;;;;;9.68;6.38;;;;;;;;;;8191032;28;20051;-58
2022/03/13 01:50:15;;;;;;;11.32;7.15;;;;;;;;;;8190458;28;20158;-58
2022/03/13 01:54:16;;;;;;;13.50;6.95;;;;;;;;;;8191332;28;20049;-58
2022/03/13 01:58:16;;;;;;;8.65;6.20;;;;;;;;;;8190233;28;20023;-58
2022/03/13 02:02:16;;;;;;;11.45;6.97;;;;;;;;;;8186402;28;20046;-58
2022/03/13 02:06:17;;;;;;;11.18;6.57;;;;;;;;;;8189214;28;20031;-58
2022/03/13 02:10:17;;;;;;;11.45;6.18;;;;;;;;;;8186092;28;20512;-58
2022/03/13 02:14:21;;;;;;;14.32;6.15;;;;;;;;;;8190403;28;20480;-59
2022/03/13 02:18:21;;;;;;;8.80;6.03;;;;;;;;;;8188495;28;20039;-59
2022/03/13 02:22:21;;;;;;;10.05;6.40;;;;;;;;;;8188024;28;20019;-58
2022/03/13 02:26:21;;;;;;;9.95;6.57;;;;;;;;;;8186298;28;20035;-58
2022/03/13 02:30:23;;;;;;;16.67;7.13;;;;;;;;;;8186393;28;20492;-59
2022/03/13 02:34:23;;;;;;;12.00;7.00;;;;;;;;;;8187244;28;20302;-59
2022/03/13 02:38:24;;;;;;;11.20;6.43;;;;;;;;;;8187248;28;20548;-59
2022/03/13 02:42:25;;;;;;;9.55;6.35;;;;;;;;;;8185748;28;20535;-59
2022/03/13 02:46:45;;;;;;;10.63;6.32;;;;;;;;;;8187827;28;20046;-56
2022/03/13 02:50:45;;;;;;;7.22;5.68;;;;;;;;;;8190508;28;20038;-57
2022/03/13 02:54:46;;;;;;;9.70;6.38;;;;;;;;;;8187795;28;20054;-58
2022/03/13 02:58:46;;;;;;;9.15;6.30;;;;;;;;;;8186923;28;20077;-59
2022/03/13 03:02:47;;;;;;;11.48;5.90;;;;;;;;;;8186601;28;20066;-59
2022/03/13 03:06:55;;;;;;;9.70;6.55;;;;;;;;;;8187553;28;20062;-58
2022/03/13 03:10:55;;;;;;;11.00;6.63;;;;;;;;;;8184174;28;20029;-58
2022/03/13 03:14:55;;;;;;;12.48;6.32;;;;;;;;;;8189315;28;20030;-58
2022/03/13 03:18:56;;;;;;;11.98;7.07;;;;;;;;;;8185290;28;20408;-58
2022/03/13 03:22:56;;;;;;;12.68;6.47;;;;;;;;;;8184192;28;20037;-58
2022/03/13 03:26:58;;;;;;;11.55;6.30;;;;;;;;;;8189147;28;20041;-56
2022/03/13 03:31:01;;;;;;;10.02;6.38;;;;;;;;;;8183058;28;20035;-56
2022/03/13 03:35:02;;;;;;;10.85;6.10;;;;;;;;;;8185664;28;20034;-56
2022/03/13 03:39:02;;;;;;;11.82;6.15;;;;;;;;;;8184729;28;20027;-57
2022/03/13 03:43:03;;;;;;;9.35;5.95;;;;;;;;;;8184592;28;20063;-57
2022/03/13 03:47:04;;;;;;;8.57;5.53;;;;;;;;;;8185488;28;20067;-58
2022/03/13 03:51:04;;;;;;;9.13;6.25;;;;;;;;;;8186349;28;20023;-58
2022/03/13 03:55:04;;;;;;;13.32;5.90;;;;;;;;;;8186121;28;20031;-58
2022/03/13 03:59:04;;;;;;;10.75;6.45;;;;;;;;;;8184129;28;20115;-58
2022/03/13 04:03:05;;;;;;;9.60;5.93;;;;;;;;;;8183173;28;20042;-58
2022/03/13 04:07:05;;;;;;;10.05;6.40;;;;;;;;;;8183565;28;20027;-58
2022/03/13 04:11:08;;;;;;;11.23;7.13;;;;;;;;;;8185591;28;20122;-58
2022/03/13 04:15:09;;;;;;;10.88;6.70;;;;;;;;;;8183970;28;20142;-58
2022/03/13 04:19:12;;;;;;;11.00;6.80;;;;;;;;;;8185105;28;20026;-59
2022/03/13 04:23:12;;;;;;;12.43;6.20;;;;;;;;;;8183794;28;20019;-58
2022/03/13 04:27:13;;;;;;;11.40;6.47;;;;;;;;;;8185814;28;20030;-58
2022/03/13 04:31:14;;;;;;;11.23;5.82;;;;;;;;;;8181857;28;20028;-59
2022/03/13 04:35:14;;;;;;;12.07;6.10;;;;;;;;;;8183849;28;20022;-58
2022/03/13 04:39:15;;;;;;;11.55;6.97;;;;;;;;;;8181838;28;20015;-58
2022/03/13 04:43:16;;;;;;;11.10;6.57;;;;;;;;;;8184057;28;20022;-58
2022/03/13 04:47:16;;;;;;;9.50;6.57;;;;;;;;;;8182957;28;20626;-58
2022/03/13 04:51:16;;;;;;;12.35;6.88;;;;;;;;;;8182475;28;20035;-58
2022/03/13 04:55:18;;;;;;;11.37;6.17;;;;;;;;;;8183992;28;20102;-58
2022/03/13 04:59:18;;;;;;;12.50;6.63;;;;;;;;;;8182404;28;20278;-58
2022/03/13 05:03:18;;;;;;;10.02;5.95;;;;;;;;;;8183283;28;20039;-58
2022/03/13 05:07:20;;;;;;;15.40;7.50;;;;;;;;;;8184840;28;20035;-58
2022/03/13 05:11:20;;;;;;;14.27;7.75;;;;;;;;;;8182249;28;20031;-58
2022/03/13 05:15:20;;;;;;;11.30;6.70;;;;;;;;;;8183661;28;20027;-60
2022/03/13 05:19:20;;;;;;;8.95;5.80;;;;;;;;;;8189794;28;20593;-58
2022/03/13 05:23:21;;;;;;;8.50;5.95;;;;;;;;;;8191583;28;20031;-58
2022/03/13 05:27:21;;;;;;;10.25;6.30;;;;;;;;;;8189693;28;20085;-58
2022/03/13 05:31:21;;;;;;;10.57;5.85;;;;;;;;;;8188785;28;20050;-58
2022/03/13 05:35:22;;;;;;;11.90;6.27;;;;;;;;;;8188790;28;20504;-58
2022/03/13 05:39:22;;;;;;;10.63;6.38;;;;;;;;;;8189556;28;20278;-58
2022/03/13 05:43:23;;;;;;;12.88;6.78;;;;;;;;;;8189835;28;20031;-58
2022/03/13 05:47:23;;;;;;;10.93;6.70;;;;;;;;;;8188328;28;20744;-58
2022/03/13 05:51:23;;;;;;;13.75;7.18;;;;;;;;;;8191581;28;20019;-58
2022/03/13 05:55:25;;;;;;;10.48;6.05;;;;;;;;;;8189076;28;20030;-58
2022/03/13 05:59:25;;;;;;;9.30;6.35;;;;;;;;;;8188394;28;20047;-59
2022/03/13 06:03:26;;;;;;;11.93;7.22;;;;;;;;;;8187725;28;20059;-58
2022/03/13 06:07:26;;;;;;;12.52;6.75;;;;;;;;;;8189058;28;20023;-58
2022/03/13 06:11:26;;;;;;;10.65;6.68;;;;;;;;;;8188360;28;20102;-59
2022/03/13 06:15:28;;;;;;;9.98;6.40;;;;;;;;;;8188443;28;20046;-59
2022/03/13 06:19:28;;;;;;;12.60;6.25;;;;;;;;;;8190409;28;20129;-59
2022/03/13 06:23:29;;;;;;;11.18;7.03;;;;;;;;;;8187317;28;20396;-60
2022/03/13 06:27:30;;;;;;;19.48;9.50;;;;;;;;;;8188161;28;20027;-58
2022/03/13 06:31:30;;;;;;;15.10;9.00;;;;;;;;;;8189715;28;20039;-59
2022/03/13 06:35:30;;;;;;;14.98;7.68;;;;;;;;;;8186206;28;20030;-59
2022/03/13 06:39:31;;;;;;;12.85;8.35;;;;;;;;;;8183999;28;20100;-59
2022/03/13 06:43:34;;;;;;;12.27;6.90;;;;;;;;;;8185817;28;20031;-59
2022/03/13 06:47:34;;;;;;;11.40;6.43;;;;;;;;;;8186697;28;20047;-58
2022/03/13 06:51:35;;;;;;;9.57;6.63;;;;;;;;;;8185370;28;20086;-60
2022/03/13 06:55:35;;;;;;;9.55;6.03;;;;;;;;;;8187466;28;20297;-58
2022/03/13 06:59:35;;;;;;;10.48;6.30;;;;;;;;;;8186304;28;20507;-58
2022/03/13 07:03:36;;;;;;;10.57;6.28;;;;;;;;;;8184836;28;20047;-59
2022/03/13 07:07:36;;;;;;;9.45;6.90;;;;;;;;;;8186543;28;20551;-59
2022/03/13 07:11:37;;;;;;;10.82;6.18;;;;;;;;;;8184424;28;20026;-60
2022/03/13 07:15:39;;;;;;;9.68;6.55;;;;;;;;;;8185918;28;20413;-59
2022/03/13 07:19:43;;;;;;;10.30;6.88;;;;;;;;;;8183999;28;20054;-60
2022/03/13 07:23:43;;;;;;;10.23;7.53;;;;;;;;;;8184055;28;20037;-60
2022/03/13 07:27:44;;;;;;;10.27;7.25;;;;;;;;;;8186319;28;20982;-59
2022/03/13 07:31:44;;;;;;;10.87;7.27;;;;;;;;;;8182064;28;20098;-59
2022/03/13 07:35:44;;;;;;;9.35;7.00;;;;;;;;;;8183063;28;20342;-60
2022/03/13 07:39:47;;;;;;;10.43;7.13;;;;;;;;;;8181666;28;20031;-59
2022/03/13 07:43:47;;;;;;;11.47;7.37;;;;;;;;;;8184908;28;20034;-60
2022/03/13 07:47:47;;;;;;;10.25;7.45;;;;;;;;;;8184588;28;21318;-60
2022/03/13 07:51:48;;;;;;;11.27;7.07;;;;;;;;;;8186166;28;20022;-60
2022/03/13 07:55:48;;;;;;;12.93;8.00;;;;;;;;;;8183270;28;20023;-60
2022/03/13 07:59:48;;;;;;;11.35;7.55;;;;;;;;;;8184867;28;20077;-60
2022/03/13 08:03:51;;;;;;;10.95;7.72;;;;;;;;;;8181719;28;20149;-60
2022/03/13 08:07:52;;;;;;;11.20;8.30;;;;;;;;;;8184933;28;20035;-60
2022/03/13 08:11:53;;;;;;;11.02;8.30;;;;;;;;;;8181659;28;20539;-60
2022/03/13 08:15:53;;;;;;;12.60;8.13;;;;;;;;;;8182498;28;20034;-60
2022/03/13 08:19:56;;;;;;;11.82;8.25;;;;;;;;;;8181895;28;20030;-60
2022/03/13 08:23:57;;;;;;;14.07;7.83;;;;;;;;;;8184062;28;20062;-60
2022/03/13 08:27:57;;;;;;;10.07;7.80;;;;;;;;;;8183155;28;20026;-60
2022/03/13 08:31:57;;;;;;;10.37;8.20;;;;;;;;;;8179389;28;20190;-60
2022/03/13 08:35:58;;;;;;;11.23;8.43;;;;;;;;;;8183297;28;20027;-60
2022/03/13 08:39:58;;;;;;;15.88;8.38;;;;;;;;;;8180800;28;20034;-60
2022/03/13 08:43:58;;;;;;;12.90;8.32;;;;;;;;;;8182456;28;20030;-60
2022/03/13 08:47:58;;;;;;;14.43;8.68;;;;;;;;;;8182548;28;20039;-60
2022/03/13 08:51:58;;;;;;;16.55;9.70;;;;;;;;;;8184348;28;20058;-60
2022/03/13 08:55:58;;;;;;;13.50;8.63;;;;;;;;;;8188196;28;20031;-60
2022/03/13 08:59:59;;;;;;;14.70;8.77;;;;;;;;;;8189505;28;20146;-59
2022/03/13 09:03:59;;;;;;;12.30;8.82;;;;;;;;;;8187488;28;20515;-59
2022/03/13 09:08:00;;;;;;;12.70;8.50;;;;;;;;;;8189901;28;20023;-59
2022/03/13 09:12:02;;;;;;;14.45;9.57;;;;;;;;;;8190725;28;20027;-59
2022/03/13 09:16:03;;;;;;;11.68;9.30;;;;;;;;;;8190201;28;20039;-59
2022/03/13 09:20:04;;;;;;;17.00;8.90;;;;;;;;;;8188076;28;20384;-59
2022/03/13 09:24:05;;;;;;;13.15;9.30;;;;;;;;;;8188436;28;20062;-59
2022/03/13 09:28:06;;;;;;;12.95;8.98;;;;;;;;;;8190274;28;20481;-58
2022/03/13 09:32:06;;;;;;;11.85;8.98;;;;;;;;;;8185512;28;20031;-60
2022/03/13 09:36:06;;;;;;;13.45;8.93;;;;;;;;;;8188617;28;20140;-57
2022/03/13 09:40:09;;;;;;;15.25;9.38;;;;;;;;;;8187396;28;20037;-59
2022/03/13 09:44:10;;;;;;;12.40;8.65;;;;;;;;;;8188376;28;20022;-60
2022/03/13 09:48:10;;;;;;;13.27;8.45;;;;;;;;;;8187060;28;20887;-59
2022/03/13 09:52:10;;;;;;;13.63;8.68;;;;;;;;;;8189456;28;20019;-59
2022/03/13 09:56:10;;;;;;;16.27;8.75;;;;;;;;;;8188400;28;20023;-59
2022/03/13 10:00:12;;;;;;;14.10;8.45;;;;;;;;;;8186156;28;20337;-59
2022/03/13 10:04:12;;;;;;;11.75;8.25;;;;;;;;;;8189281;28;20031;-59
2022/03/13 10:08:13;;;;;;;12.38;8.43;;;;;;;;;;8187223;28;21133;-59
2022/03/13 10:12:15;;;;;;;15.73;8.23;;;;;;;;;;8188141;28;20371;-59
2022/03/13 10:16:19;;;;;;;13.55;8.57;;;;;;;;;;8186248;28;20043;-58
2022/03/13 10:20:23;;;;;;;16.00;8.73;;;;;;;;;;8186091;28;20027;-59
2022/03/13 10:24:24;;;;;;;12.00;7.78;;;;;;;;;;8188952;28;20046;-59
2022/03/13 10:28:30;;;;;;;15.23;8.85;;;;;;;;;;8187740;28;20034;-58
2022/03/13 10:32:30;;;;;;;22.08;9.50;;;;;;;;;;8185831;28;20043;-59
2022/03/13 10:36:37;;;;;;;15.73;8.55;;;;;;;;;;8186560;28;20065;-58
2022/03/13 10:40:38;;;;;;;15.82;9.23;;;;;;;;;;8185353;28;20101;-58
2022/03/13 10:44:42;;;;;;;16.55;9.00;;;;;;;;;;8186449;28;20039;-59
2022/03/13 10:48:42;;;;;;;;;;;;;;;;;;8188055;28;20062;-59
2022/03/13 10:52:47;;;;;;;16.83;9.27;;;;;;;;;;8185786;28;19917;-59
2022/03/13 10:57:03;;;;;;;16.33;8.70;;;;;;;;;;8185018;28;20997;-59
2022/03/13 11:01:10;;;;;;;15.18;9.05;;;;;;;;;;8185182;28;20077;-59
2022/03/13 11:05:10;;;;;;;12.38;8.60;;;;;;;;;;8186110;28;20031;-58
2022/03/13 11:09:11;;;;;;;14.68;8.73;;;;;;;;;;8186576;28;20041;-59
2022/03/13 11:13:14;;;;;;;19.95;9.63;;;;;;;;;;8185689;28;20015;-59
2022/03/13 11:17:15;;;;;;;13.68;9.02;;;;;;;;;;8183303;28;20039;-59
2022/03/13 11:21:16;;;;;;;15.38;9.82;;;;;;;;;;8186093;28;20058;-59
2022/03/13 11:25:16;;;;;;;13.52;9.25;;;;;;;;;;8184504;28;20118;-59
2022/03/13 11:29:36;;;;;;;14.68;9.70;;;;;;;;;;8184682;28;20065;-59
2022/03/13 11:33:44;;;;;;;15.95;9.52;;;;;;;;;;8185887;28;20078;-59
2022/03/13 11:37:46;;;;;;;15.32;10.18;;;;;;;;;;8185977;28;20839;-59
2022/03/13 11:41:47;;;;;;;17.27;9.90;;;;;;;;;;8184017;28;20711;-59
2022/03/13 11:45:49;;;;;;;14.75;9.10;;;;;;;;;;8184529;28;20051;-59
2022/03/13 11:49:49;;;;;;;15.10;10.10;;;;;;;;;;8183984;28;20827;-59
2022/03/13 11:53:49;;;;;;;18.65;10.30;;;;;;;;;;8185233;28;20585;-60
2022/03/13 11:57:51;;;;;;;18.08;9.95;;;;;;;;;;8184154;28;20026;-59
2022/03/13 12:01:52;;;;;;;19.00;10.40;;;;;;;;;;8183336;28;20498;-60
2022/03/13 12:05:52;;;;;;;15.43;11.07;;;;;;;;;;8185056;28;20058;-59
2022/03/13 12:09:52;;;;;;;15.68;10.75;;;;;;;;;;8182659;28;20038;-60
2022/03/13 12:13:53;;;;;;;22.15;11.48;;;;;;;;;;8182729;28;20101;-59
2022/03/13 12:17:55;;;;;;;18.67;11.60;;;;;;;;;;8182948;28;20043;-59
2022/03/13 12:21:55;;;;;;;15.35;10.65;;;;;;;;;;8180674;28;20173;-60
2022/03/13 12:26:14;;;;;;;17.13;11.90;;;;;;;;;;8180943;28;20062;-60
2022/03/13 12:30:22;;;;;;;18.60;11.82;;;;;;;;;;8178099;28;20147;-60
2022/03/13 12:34:25;;;;;;;18.70;12.55;;;;;;;;;;8181703;28;20023;-60
2022/03/13 12:38:26;;;;;;;18.65;12.65;;;;;;;;;;8179896;28;20066;-59
2022/03/13 12:42:28;;;;;;;19.98;11.63;;;;;;;;;;8179593;28;20783;-59
2022/03/13 12:46:29;;;;;;;17.75;10.82;;;;;;;;;;8179123;28;20051;-59
2022/03/13 12:50:36;;;;;;;17.63;11.77;;;;;;;;;;8181708;28;20058;-59
2022/03/13 12:54:38;;;;;;;20.55;12.68;;;;;;;;;;8182175;28;20031;-59
2022/03/13 12:58:45;;;;;;;19.00;12.30;;;;;;;;;;8181265;28;20039;-59
2022/03/13 13:02:58;;;;;;;16.17;12.30;;;;;;;;;;8180843;28;20039;-59
2022/03/13 13:06:59;;;;;;;19.87;12.47;;;;;;;;;;8181920;28;20062;-59
2022/03/13 13:10:59;;;;;;;19.48;12.60;;;;;;;;;;8176290;28;20023;-59
2022/03/13 13:15:00;;;;;;;19.75;11.80;;;;;;;;;;8181053;28;20042;-59
2022/03/13 13:19:00;;;;;;;17.25;12.43;;;;;;;;;;8179461;28;20045;-59
2022/03/13 13:23:14;;;;;;;20.30;12.33;;;;;;;;;;8182183;28;20110;-59
2022/03/13 13:27:27;;;;;;;19.02;12.85;;;;;;;;;;8180654;28;20299;-59
2022/03/13 13:31:27;;;;;;;19.33;12.82;;;;;;;;;;8177629;28;20130;-59
2022/03/13 13:35:29;;;;;;;19.52;12.60;;;;;;;;;;8179878;28;20098;-59
2022/03/13 13:39:29;;;;;;;18.55;12.55;;;;;;;;;;8184054;28;20065;-59
2022/03/13 13:43:48;;;;;;;19.30;13.52;;;;;;;;;;8187074;28;20031;-60
2022/03/13 13:47:49;;;;;;;18.58;13.10;;;;;;;;;;8184954;28;20055;-59
2022/03/13 13:51:49;;;;;;;17.88;12.43;;;;;;;;;;8185709;28;20015;-59
2022/03/13 13:55:50;;;;;;;19.60;12.38;;;;;;;;;;8185838;28;20065;-59
2022/03/13 13:59:50;;;;;;;22.38;13.73;;;;;;;;;;8184500;28;20879;-60
2022/03/13 14:03:50;;;;;;;20.42;12.65;;;;;;;;;;8185612;28;20039;-59
2022/03/13 14:07:51;;;;;;;20.85;13.68;;;;;;;;;;8186855;28;20023;-59
2022/03/13 14:11:51;;;;;;;21.40;12.98;;;;;;;;;;8185339;28;20023;-59
2022/03/13 14:15:51;;;;;;;20.20;13.30;;;;;;;;;;8185386;28;20050;-59
2022/03/13 14:19:51;;;;;;;19.08;12.75;;;;;;;;;;8185151;28;20118;-59
2022/03/13 14:23:52;;;;;;;18.13;12.55;;;;;;;;;;8186427;28;20034;-59
2022/03/13 14:27:52;;;;;;;20.80;12.97;;;;;;;;;;8186642;28;20027;-60
2022/03/13 14:31:53;;;;;;;24.08;13.55;;;;;;;;;;8182910;28;20035;-60
2022/03/13 14:35:54;;;;;;;20.75;13.23;;;;;;;;;;8184824;28;20026;-60
2022/03/13 14:39:54;;;;;;;19.42;13.18;;;;;;;;;;8185353;28;20037;-59
2022/03/13 14:43:55;;;;;;;17.05;11.57;;;;;;;;;;8184797;28;20058;-60
2022/03/13 14:47:56;;;;;;;17.92;12.45;;;;;;;;;;8184105;28;20832;-59
2022/03/13 14:51:57;;;;;;;18.20;11.90;;;;;;;;;;8184353;28;20080;-60
2022/03/13 14:55:57;;;;;;;18.27;12.10;;;;;;;;;;8184311;28;20125;-59
2022/03/13 14:59:57;;;;;;;17.75;11.57;;;;;;;;;;8185123;28;20058;-59
2022/03/13 15:03:57;;;;;;;18.95;12.82;;;;;;;;;;8186343;28;20041;-59
2022/03/13 15:07:58;;;;;;;18.65;12.52;;;;;;;;;;8190079;28;20042;-58
2022/03/13 15:11:58;;;;;;;19.65;12.82;;;;;;;;;;8187607;28;20859;-59
2022/03/13 15:15:58;;;;;;;17.15;12.52;;;;;;;;;;8186672;28;20075;-59
2022/03/13 15:19:59;;;;;;;18.92;11.68;;;;;;;;;;8187276;28;20031;-59
2022/03/13 15:24:00;;;;;;;19.90;12.52;;;;;;;;;;8188209;28;20035;-59
2022/03/13 15:28:00;;;;;;;17.27;11.57;;;;;;;;;;8187878;28;20164;-60
2022/03/13 15:32:00;;;;;;;16.48;11.45;;;;;;;;;;8185712;28;20031;-60
2022/03/13 15:36:00;;;;;;;18.50;11.70;;;;;;;;;;8186479;28;20022;-60
2022/03/13 15:40:02;;;;;;;17.40;12.50;;;;;;;;;;8187788;28;20045;-59
2022/03/13 15:44:03;;;;;;;16.73;11.93;;;;;;;;;;8186829;28;20756;-59
2022/03/13 15:48:04;;;;;;;21.30;12.02;;;;;;;;;;8185963;28;20083;-59
2022/03/13 15:52:08;;;;;;;14.65;10.93;;;;;;;;;;8187612;28;20022;-59
2022/03/13 15:56:10;;;;;;;17.75;10.93;;;;;;;;;;8186801;28;20082;-59
2022/03/13 16:00:12;;;;;;;15.13;10.53;;;;;;;;;;8185640;28;20038;-59
2022/03/13 16:04:12;;;;;;;15.77;10.30;;;;;;;;;;8186598;28;20034;-58
2022/03/13 16:08:12;;;;;;;16.42;10.23;;;;;;;;;;8187809;28;20022;-59
2022/03/13 16:12:12;;;;;;;12.68;9.18;;;;;;;;;;8183940;28;20058;-58
2022/03/13 16:16:13;;;;;;;14.73;10.10;;;;;;;;;;8186870;28;20035;-59
2022/03/13 16:20:14;;;;;;;15.20;10.35;;;;;;;;;;8184956;28;20022;-59
2022/03/13 16:24:14;;;;;;;14.63;10.25;;;;;;;;;;8188616;28;20141;-60
2022/03/13 16:28:14;;;;;;;17.73;10.15;;;;;;;;;;8186208;28;20027;-59
2022/03/13 16:32:16;;;;;;;13.57;10.30;;;;;;;;;;8185046;28;20572;-59
2022/03/13 16:36:16;;;;;;;13.50;9.68;;;;;;;;;;8184671;28;20284;-59
2022/03/13 16:40:17;;;;;;;14.32;9.25;;;;;;;;;;8186856;28;20038;-60
2022/03/13 16:44:18;;;;;;;14.80;9.68;;;;;;;;;;8183754;28;20038;-59
2022/03/13 16:48:18;;;;;;;15.13;9.82;;;;;;;;;;8185832;28;20058;-58
2022/03/13 16:52:18;;;;;;;14.52;9.45;;;;;;;;;;8189562;28;20603;-58
2022/03/13 16:56:18;;;;;;;19.23;9.80;;;;;;;;;;8187019;28;20031;-60
2022/03/13 17:00:19;;;;;;;12.40;8.45;;;;;;;;;;8184865;28;20038;-58
2022/03/13 17:04:19;;;;;;;13.30;8.57;;;;;;;;;;8183866;28;20046;-60
2022/03/13 17:08:19;;;;;;;12.88;8.48;;;;;;;;;;8185498;28;20430;-58
2022/03/13 17:12:19;;;;;;;14.52;9.60;;;;;;;;;;8185151;28;20105;-59
2022/03/13 17:16:19;;;;;;;13.10;8.70;;;;;;;;;;8189249;28;20047;-58
2022/03/13 17:20:21;;;;;;;13.25;8.93;;;;;;;;;;8191165;28;20489;-58
2022/03/13 17:24:25;;;;;;;13.20;8.80;;;;;;;;;;8193127;28;20447;-59
2022/03/13 17:28:25;;;;;;;15.30;8.38;;;;;;;;;;8189020;28;20803;-59
2022/03/13 17:32:26;;;;;;;15.63;8.90;;;;;;;;;;8187899;28;20129;-59
2022/03/13 17:36:26;;;;;;;14.77;9.13;;;;;;;;;;8190152;28;20033;-59
2022/03/13 17:40:26;;;;;;;13.63;8.73;;;;;;;;;;8189281;28;20525;-59
2022/03/13 17:44:27;;;;;;;12.25;8.75;;;;;;;;;;8193602;28;20035;-59
2022/03/13 17:48:27;;;;;;;19.40;10.10;;;;;;;;;;8187674;28;20047;-59
2022/03/13 17:52:27;;;;;;;15.57;9.82;;;;;;;;;;8185316;28;20102;-59
2022/03/13 17:56:27;;;;;;;15.90;9.98;;;;;;;;;;8191345;28;20037;-60
2022/03/13 18:00:28;;;;;;;14.70;9.95;;;;;;;;;;8186118;28;20171;-59
2022/03/13 18:04:28;;;;;;;14.52;9.25;;;;;;;;;;8187303;28;20027;-59
2022/03/13 18:08:28;;;;;;;15.95;9.80;;;;;;;;;;8187569;28;20587;-58
2022/03/13 18:12:29;;;;;;;16.40;9.68;;;;;;;;;;8186880;28;20094;-58
2022/03/13 18:16:29;;;;;;;15.48;9.63;;;;;;;;;;8187685;28;20088;-58
2022/03/13 18:20:30;;;;;;;13.48;9.43;;;;;;;;;;8187007;28;20030;-59
2022/03/13 18:24:30;;;;;;;15.73;10.27;;;;;;;;;;8184779;28;20027;-58
2022/03/13 18:28:30;;;;;;;16.05;10.50;;;;;;;;;;8185128;28;20133;-58
2022/03/13 18:32:31;;;;;;;15.75;10.57;;;;;;;;;;8185429;28;20042;-58
2022/03/13 18:36:31;;;;;;;18.85;11.10;;;;;;;;;;8186446;28;20122;-58
2022/03/13 18:40:31;;;;;;;15.77;10.17;;;;;;;;;;8179081;28;20043;-58
2022/03/13 18:44:31;;;;;;;16.65;11.05;;;;;;;;;;8185430;28;20277;-58
2022/03/13 18:48:32;;;;;;;17.17;10.40;;;;;;;;;;8178461;28;20161;-59
2022/03/13 18:52:32;;;;;;;16.52;10.70;;;;;;;;;;8181176;28;20577;-58
2022/03/13 18:56:33;;;;;;;18.45;9.98;;;;;;;;;;8175833;28;20026;-59
2022/03/13 19:00:34;;;;;;;21.73;10.65;;;;;;;;;;8178568;28;20031;-58
2022/03/13 19:04:35;;;;;;;16.70;10.63;;;;;;;;;;8178506;28;20090;-60
2022/03/13 19:08:35;;;;;;;16.33;9.90;;;;;;;;;;8178502;28;20109;-57
2022/03/13 19:12:36;;;;;;;15.65;9.48;;;;;;;;;;8177907;28;20265;-57
2022/03/13 19:16:38;;;;;;;16.65;10.18;;;;;;;;;;8171491;28;20084;-57
2022/03/13 19:20:41;;;;;;;16.42;9.55;;;;;;;;;;8173494;28;20125;-57
2022/03/13 19:24:42;;;;;;;17.98;10.77;;;;;;;;;;8173392;28;20027;-57
2022/03/13 19:28:42;;;;;;;17.05;10.52;;;;;;;;;;8169092;28;20037;-59
2022/03/13 19:32:42;;;;;;;17.77;10.02;;;;;;;;;;8173086;28;20451;-58
2022/03/13 19:36:42;;;;;;;20.60;9.25;;;;;;;;;;8173817;28;20431;-58
2022/03/13 19:40:43;;;;;;;17.95;9.65;;;;;;;;;;8171091;28;20395;-58
2022/03/13 19:44:43;;;;;;;16.00;10.02;;;;;;;;;;8174119;28;20031;-59
2022/03/13 19:48:44;;;;;;;16.13;9.68;;;;;;;;;;8172348;28;20361;-59
2022/03/13 19:52:45;;;;;;;16.73;9.77;;;;;;;;;;8171646;28;20058;-59
2022/03/13 19:56:45;;;;;;;15.15;9.63;;;;;;;;;;8171856;28;20089;-58
2022/03/13 20:00:47;;;;;;;15.60;9.95;;;;;;;;;;8172821;28;20500;-59
2022/03/13 20:04:47;;;;;;;18.35;10.13;;;;;;;;;;8168354;28;20143;-60
2022/03/13 20:08:48;;;;;;;15.35;9.90;;;;;;;;;;8172543;28;20031;-58
2022/03/13 20:12:48;;;;;;;14.63;9.80;;;;;;;;;;8174834;28;20049;-59
2022/03/13 20:16:49;;;;;;;16.40;10.18;;;;;;;;;;8173266;28;20043;-59
2022/03/13 20:20:49;;;;;;;20.02;11.00;;;;;;;;;;8175371;28;20031;-58
2022/03/13 20:24:50;;;;;;;17.15;10.13;;;;;;;;;;8177119;28;20037;-58
2022/03/13 20:28:50;;;;;;;16.50;10.80;;;;;;;;;;8181725;28;20299;-58
2022/03/13 20:32:50;;;;;;;17.88;10.88;;;;;;;;;;8181915;28;20154;-60
2022/03/13 20:36:51;;;;;;;18.23;10.85;;;;;;;;;;8180116;28;20035;-58
2022/03/13 20:40:51;;;;;;;18.58;11.68;;;;;;;;;;8183072;28;20028;-58
2022/03/13 20:44:53;;;;;;;17.50;11.20;;;;;;;;;;8184104;28;20026;-59
2022/03/13 20:48:53;;;;;;;19.13;11.57;;;;;;;;;;8188021;28;20050;-59
2022/03/13 20:52:54;;;;;;;18.48;11.45;;;;;;;;;;8195907;28;20023;-59
2022/03/13 20:56:54;;;;;;;18.50;12.13;;;;;;;;;;8193961;28;20572;-59
2022/03/13 21:00:54;;;;;;;18.65;11.80;;;;;;;;;;8189394;28;20039;-59
2022/03/13 21:04:55;;;;;;;22.30;11.90;;;;;;;;;;8192257;28;20026;-58
2022/03/13 21:08:55;;;;;;;20.05;12.52;;;;;;;;;;8188779;28;20019;-59
2022/03/13 21:12:57;;;;;;;20.55;12.48;;;;;;;;;;8193534;28;20146;-58
2022/03/13 21:16:58;;;;;;;21.55;13.77;;;;;;;;;;8190475;28;20041;-59
2022/03/13 21:20:58;;;;;;;24.45;14.27;;;;;;;;;;8192874;28;20034;-58
2022/03/13 21:24:59;;;;;;;25.48;13.85;;;;;;;;;;8193148;28;20105;-58
2022/03/13 21:28:59;;;;;;;19.93;12.80;;;;;;;;;;8191919;28;20617;-58
2022/03/13 21:32:59;;;;;;;21.88;12.68;;;;;;;;;;8192555;28;20283;-58
2022/03/13 21:37:00;;;;;;;24.30;11.80;;;;;;;;;;8193288;28;20085;-58
2022/03/13 21:41:01;;;;;;;23.25;11.45;;;;;;;;;;8189929;28;20373;-58
2022/03/13 21:45:01;;;;;;;20.92;13.70;;;;;;;;;;8193350;28;20121;-58
2022/03/13 21:49:01;;;;;;;21.13;12.63;;;;;;;;;;8190038;28;20040;-58
2022/03/13 21:53:01;;;;;;;16.05;10.90;;;;;;;;;;8190477;28;20074;-58
2022/03/13 21:57:02;;;;;;;17.08;10.98;;;;;;;;;;8191027;28;20779;-59
2022/03/13 22:01:02;;;;;;;17.52;10.43;;;;;;;;;;8186592;28;20067;-58
2022/03/13 22:05:04;;;;;;;19.38;9.75;;;;;;;;;;8180672;28;20531;-58
2022/03/13 22:09:04;;;;;;;15.38;9.27;;;;;;;;;;8175785;28;20556;-58
2022/03/13 22:13:09;;;;;;;14.07;8.88;;;;;;;;;;8178482;28;20456;-58
2022/03/13 22:17:11;;;;;;;;;;;;;;;;;;8180707;28;20449;-58
2022/03/13 22:21:12;;;;;;;14.38;8.35;;;;;;;;;;8179622;28;20463;-58
2022/03/13 22:25:14;;;;;;;13.10;9.07;;;;;;;;;;8180417;28;20872;-58
2022/03/13 22:29:14;;;;;;;13.50;8.85;;;;;;;;;;8180497;28;20715;-58
2022/03/13 22:33:15;;;;;;;18.67;9.57;;;;;;;;;;8181327;28;20035;-58
2022/03/13 22:37:15;;;;;;;21.13;12.45;;;;;;;;;;8179716;28;20019;-58
2022/03/13 22:41:15;;;;;;;19.38;10.57;;;;;;;;;;8178950;28;20030;-57
2022/03/13 22:45:16;;;;;;;19.05;10.32;;;;;;;;;;8178351;28;20489;-58
2022/03/13 22:49:16;;;;;;;14.82;9.65;;;;;;;;;;8180164;28;20035;-58
2022/03/13 22:53:17;;;;;;;13.77;8.95;;;;;;;;;;8183727;28;20046;-58
2022/03/13 22:57:23;;;;;;;13.98;9.90;;;;;;;;;;8182113;28;20084;-58
2022/03/13 23:01:25;;;;;;;20.50;10.43;;;;;;;;;;8179840;28;20071;-58
2022/03/13 23:05:27;;;;;;;15.50;10.40;;;;;;;;;;8181293;28;20031;-58
2022/03/13 23:09:27;;;;;;;16.70;10.73;;;;;;;;;;8181140;28;20074;-58
2022/03/13 23:13:28;;;;;;;18.65;10.43;;;;;;;;;;8180104;28;20034;-59
2022/03/13 23:17:32;;;;;;;19.60;10.10;;;;;;;;;;8181131;28;20474;-57
2022/03/13 23:21:33;;;;;;;18.77;11.10;;;;;;;;;;8178651;28;20031;-58
2022/03/13 23:25:34;;;;;;;16.15;10.95;;;;;;;;;;8180774;28;20402;-58
2022/03/13 23:29:37;;;;;;;16.35;10.20;;;;;;;;;;8176531;28;20029;-59
2022/03/13 23:33:38;;;;;;;19.60;10.10;;;;;;;;;;8179572;28;20038;-58
2022/03/13 23:37:40;;;;;;;19.45;11.02;;;;;;;;;;8180319;28;20033;-58